createdAt,value
2023-06-17T00:00:55.492Z,31.73
2023-06-17T00:01:55.447Z,31.76
2023-06-17T00:02:55.492Z,31.71
2023-06-17T00:03:55.373Z,31.73
2023-06-17T00:04:55.321Z,31.70
2023-06-17T00:05:55.286Z,31.71
2023-06-17T00:06:55.269Z,31.71
2023-06-17T00:07:55.220Z,31.77
2023-06-17T00:08:55.245Z,31.76
2023-06-17T00:09:55.142Z,31.73
2023-06-17T00:10:55.124Z,31.73
2023-06-17T00:11:55.086Z,31.70
2023-06-17T00:12:55.048Z,31.76
2023-06-17T00:13:55.005Z,31.71
2023-06-17T00:14:54.963Z,31.80
2023-06-17T00:15:54.919Z,31.76
2023-06-17T00:16:54.885Z,31.80
2023-06-17T00:17:54.888Z,31.79
2023-06-17T00:18:54.800Z,31.76
2023-06-17T00:19:54.763Z,31.81
2023-06-17T00:20:54.740Z,31.71
2023-06-17T00:21:54.685Z,31.78
2023-06-17T00:22:54.671Z,31.84
2023-06-17T00:23:54.615Z,31.77
2023-06-17T00:24:54.562Z,31.78
2023-06-17T00:25:54.534Z,31.80
2023-06-17T00:26:54.506Z,31.80
2023-06-17T00:27:54.450Z,31.78
2023-06-17T00:28:54.423Z,31.78
2023-06-17T00:29:54.355Z,31.80
2023-06-17T00:30:54.343Z,31.80
2023-06-17T00:31:54.285Z,31.80
2023-06-17T00:32:54.327Z,31.75
2023-06-17T00:33:54.202Z,31.80
2023-06-17T00:34:54.153Z,31.78
2023-06-17T00:35:55.982Z,31.81
2023-06-17T00:36:54.097Z,31.81
2023-06-17T00:37:54.061Z,31.81
2023-06-17T00:38:54.013Z,31.77
2023-06-17T00:39:53.973Z,31.80
2023-06-17T00:40:53.942Z,31.84
2023-06-17T00:41:53.898Z,31.80
2023-06-17T00:42:53.850Z,31.81
2023-06-17T00:43:53.808Z,31.81
2023-06-17T00:44:53.788Z,31.84
2023-06-17T00:45:53.765Z,31.86
2023-06-17T00:46:53.818Z,31.87
2023-06-17T00:47:53.749Z,31.87
2023-06-17T00:48:53.702Z,31.84
2023-06-17T00:49:53.691Z,31.86
2023-06-17T00:50:53.691Z,31.83
2023-06-17T00:52:10.048Z,31.81
2023-06-17T00:52:54.728Z,31.84
2023-06-17T00:53:53.602Z,31.84
2023-06-17T00:54:53.556Z,31.85
2023-06-17T00:55:53.519Z,31.84
2023-06-17T00:56:53.485Z,31.84
2023-06-17T00:57:53.445Z,31.86
2023-06-17T00:58:53.417Z,31.89
2023-06-17T00:59:53.379Z,31.82
2023-06-17T01:00:53.356Z,31.83
2023-06-17T01:01:53.311Z,31.84
2023-06-17T01:02:53.320Z,31.87
2023-06-17T01:03:53.327Z,31.83
2023-06-17T01:04:53.190Z,31.88
2023-06-17T01:05:53.147Z,31.88
2023-06-17T01:06:53.127Z,31.88
2023-06-17T01:07:53.068Z,31.85
2023-06-17T01:08:53.041Z,31.91
2023-06-17T01:09:53.005Z,31.87
2023-06-17T01:10:52.976Z,31.88
2023-06-17T01:11:52.933Z,31.88
2023-06-17T01:12:52.887Z,31.90
2023-06-17T01:13:52.846Z,31.88
2023-06-17T01:14:52.803Z,31.93
2023-06-17T01:15:52.771Z,31.94
2023-06-17T01:16:52.740Z,31.91
2023-06-17T01:17:52.752Z,31.86
2023-06-17T01:18:52.676Z,31.89
2023-06-17T01:19:52.642Z,31.89
2023-06-17T01:20:52.610Z,31.91
2023-06-17T01:21:52.575Z,31.89
2023-06-17T01:22:52.548Z,31.92
2023-06-17T01:23:52.576Z,31.97
2023-06-17T01:24:52.504Z,31.91
2023-06-17T01:25:52.443Z,31.94
2023-06-17T01:26:52.415Z,31.94
2023-06-17T01:27:52.389Z,31.92
2023-06-17T01:28:52.368Z,31.94
2023-06-17T01:29:52.317Z,31.91
2023-06-17T01:30:52.286Z,31.92
2023-06-17T01:31:52.262Z,31.91
2023-06-17T01:32:52.307Z,31.97
2023-06-17T01:33:52.200Z,31.97
2023-06-17T01:34:52.197Z,31.95
2023-06-17T01:35:52.146Z,31.89
2023-06-17T01:36:52.097Z,31.95
2023-06-17T01:37:52.092Z,31.95
2023-06-17T01:38:52.069Z,31.97
2023-06-17T01:39:52.070Z,31.97
2023-06-17T01:40:52.040Z,31.91
2023-06-17T01:41:52.041Z,31.98
2023-06-17T01:42:52.056Z,31.97
2023-06-17T01:43:52.029Z,31.99
2023-06-17T01:44:52.015Z,31.97
2023-06-17T01:45:52.034Z,31.98
2023-06-17T01:46:52.015Z,32.01
2023-06-17T01:47:52.033Z,31.95
2023-06-17T01:48:51.973Z,31.97
2023-06-17T01:49:51.969Z,31.98
2023-06-17T01:50:51.967Z,31.93
2023-06-17T01:51:51.949Z,31.95
2023-06-17T01:52:51.967Z,31.93
2023-06-17T01:53:51.983Z,31.98
2023-06-17T01:54:51.928Z,31.99
2023-06-17T01:55:51.913Z,31.98
2023-06-17T01:56:51.906Z,31.98
2023-06-17T01:57:51.931Z,31.98
2023-06-17T01:58:51.884Z,32.05
2023-06-17T01:59:51.888Z,32.04
2023-06-17T02:00:51.871Z,31.99
2023-06-17T02:01:51.866Z,31.97
2023-06-17T02:02:51.941Z,32.02
2023-06-17T02:03:51.886Z,31.98
2023-06-17T02:04:51.856Z,32.02
2023-06-17T02:05:51.834Z,32.02
2023-06-17T02:06:51.834Z,32.01
2023-06-17T02:07:51.838Z,32.01
2023-06-17T02:08:51.827Z,32.01
2023-06-17T02:09:51.836Z,32.06
2023-06-17T02:10:51.824Z,32.01
2023-06-17T02:11:51.797Z,32.05
2023-06-17T02:12:51.812Z,32.02
2023-06-17T02:13:51.778Z,32.02
2023-06-17T02:14:51.785Z,32.03
2023-06-17T02:15:51.776Z,32.01
2023-06-17T02:16:51.768Z,32.05
2023-06-17T02:17:51.808Z,32.03
2023-06-17T02:18:51.740Z,32.06
2023-06-17T02:19:51.745Z,32.01
2023-06-17T02:20:51.730Z,32.01
2023-06-17T02:21:51.738Z,32.05
2023-06-17T02:22:51.736Z,32.02
2023-06-17T02:23:51.750Z,32.03
2023-06-17T02:24:51.719Z,32.09
2023-06-17T02:25:51.701Z,32.06
2023-06-17T02:26:51.698Z,32.08
2023-06-17T02:27:51.697Z,32.08
2023-06-17T02:28:51.726Z,32.03
2023-06-17T02:29:51.681Z,32.02
2023-06-17T02:30:51.768Z,32.09
2023-06-17T02:31:51.686Z,32.11
2023-06-17T02:32:51.757Z,32.08
2023-06-17T02:33:51.711Z,32.11
2023-06-17T02:34:51.704Z,32.06
2023-06-17T02:35:51.681Z,32.09
2023-06-17T02:36:51.687Z,32.09
2023-06-17T02:37:51.700Z,32.08
2023-06-17T02:38:51.693Z,32.12
2023-06-17T02:39:51.678Z,32.09
2023-06-17T02:40:51.713Z,32.08
2023-06-17T02:41:51.678Z,32.04
2023-06-17T02:42:51.691Z,32.11
2023-06-17T02:43:51.674Z,32.04
2023-06-17T02:44:51.683Z,32.10
2023-06-17T02:45:51.690Z,32.10
2023-06-17T02:46:51.769Z,32.10
2023-06-17T02:47:51.754Z,32.10
2023-06-17T02:48:51.714Z,32.08
2023-06-17T02:49:51.707Z,32.13
2023-06-17T02:50:51.697Z,32.15
2023-06-17T02:51:51.693Z,32.12
2023-06-17T02:52:51.715Z,32.04
2023-06-17T02:53:51.683Z,31.96
2023-06-17T02:54:51.701Z,31.60
2023-06-17T02:55:51.713Z,30.96
2023-06-17T02:56:51.720Z,30.80
2023-06-17T02:57:51.720Z,30.62
2023-06-17T02:58:51.718Z,30.67
2023-06-17T02:59:51.721Z,30.44
2023-06-17T03:00:51.840Z,30.33
2023-06-17T03:01:51.744Z,30.26
2023-06-17T03:02:52.048Z,30.19
2023-06-17T03:03:51.786Z,30.07
2023-06-17T03:04:51.773Z,29.97
2023-06-17T03:05:51.790Z,30.00
2023-06-17T03:06:52.264Z,29.88
2023-06-17T03:07:51.817Z,29.80
2023-06-17T03:08:51.840Z,29.77
2023-06-17T03:09:51.864Z,29.67
2023-06-17T03:10:51.875Z,29.68
2023-06-17T03:11:51.898Z,29.60
2023-06-17T03:12:51.923Z,29.58
2023-06-17T03:13:51.942Z,29.49
2023-06-17T03:14:51.967Z,29.56
2023-06-17T03:15:52.027Z,29.52
2023-06-17T03:16:52.056Z,29.49
2023-06-17T03:17:52.127Z,29.48
2023-06-17T03:18:52.129Z,29.43
2023-06-17T03:19:52.162Z,29.46
2023-06-17T03:20:52.178Z,29.44
2023-06-17T03:21:52.216Z,29.36
2023-06-17T03:22:52.277Z,29.39
2023-06-17T03:23:52.324Z,29.32
2023-06-17T03:24:52.357Z,29.29
2023-06-17T03:25:52.382Z,29.33
2023-06-17T03:26:52.428Z,29.30
2023-06-17T03:27:52.460Z,29.30
2023-06-17T03:28:52.486Z,29.28
2023-06-17T03:29:52.512Z,29.25
2023-06-17T03:30:52.574Z,29.31
2023-06-17T03:31:52.636Z,29.30
2023-06-17T03:32:52.653Z,29.28
2023-06-17T03:33:52.646Z,29.31
2023-06-17T03:34:52.653Z,29.28
2023-06-17T03:35:52.660Z,29.28
2023-06-17T03:36:52.621Z,29.26
2023-06-17T03:37:52.614Z,29.28
2023-06-17T03:38:52.581Z,29.33
2023-06-17T03:39:52.571Z,29.27
2023-06-17T03:40:52.538Z,29.29
2023-06-17T03:41:52.514Z,29.24
2023-06-17T03:42:52.538Z,29.33
2023-06-17T03:43:52.488Z,29.27
2023-06-17T03:44:52.467Z,29.28
2023-06-17T03:45:52.433Z,29.28
2023-06-17T03:46:52.417Z,29.27
2023-06-17T03:47:52.464Z,29.27
2023-06-17T03:48:52.395Z,29.34
2023-06-17T03:49:52.395Z,29.28
2023-06-17T03:50:52.409Z,29.28
2023-06-17T03:51:52.419Z,29.35
2023-06-17T03:52:52.453Z,29.31
2023-06-17T03:53:52.435Z,29.34
2023-06-17T03:54:52.426Z,29.26
2023-06-17T03:55:52.484Z,29.39
2023-06-17T03:56:52.414Z,29.26
2023-06-17T03:57:52.402Z,29.30
2023-06-17T03:58:52.389Z,29.27
2023-06-17T03:59:52.361Z,29.32
2023-06-17T04:00:52.345Z,29.27
2023-06-17T04:01:52.330Z,29.37
2023-06-17T04:02:52.424Z,29.37
2023-06-17T04:03:52.504Z,29.39
2023-06-17T04:04:52.304Z,29.38
2023-06-17T04:05:52.298Z,29.42
2023-06-17T04:06:52.266Z,29.42
2023-06-17T04:07:52.264Z,29.44
2023-06-17T04:08:52.258Z,29.40
2023-06-17T04:10:05.904Z,29.41
2023-06-17T04:10:53.230Z,29.46
2023-06-17T04:11:52.193Z,29.47
2023-06-17T04:12:52.186Z,29.42
2023-06-17T04:13:52.176Z,29.41
2023-06-17T04:14:52.146Z,29.44
2023-06-17T04:15:52.118Z,29.50
2023-06-17T04:16:52.118Z,29.50
2023-06-17T04:17:52.151Z,29.53
2023-06-17T04:18:52.088Z,29.55
2023-06-17T04:19:52.078Z,29.55
2023-06-17T04:20:52.053Z,29.52
2023-06-17T04:21:52.026Z,29.55
2023-06-17T04:22:52.006Z,29.56
2023-06-17T04:23:52.016Z,29.54
2023-06-17T04:24:51.988Z,29.52
2023-06-17T04:25:51.962Z,29.55
2023-06-17T04:26:51.948Z,29.56
2023-06-17T04:27:51.925Z,29.56
2023-06-17T04:28:51.901Z,29.58
2023-06-17T04:29:51.893Z,29.60
2023-06-17T04:30:51.844Z,29.59
2023-06-17T04:31:51.810Z,29.61
2023-06-17T04:32:51.823Z,29.68
2023-06-17T04:33:51.795Z,29.61
2023-06-17T04:34:51.761Z,29.62
2023-06-17T04:35:51.738Z,29.63
2023-06-17T04:36:51.712Z,29.65
2023-06-17T04:37:51.697Z,29.63
2023-06-17T04:38:51.674Z,29.62
2023-06-17T04:39:51.650Z,29.65
2023-06-17T04:40:51.636Z,29.62
2023-06-17T04:41:51.613Z,29.66
2023-06-17T04:42:51.609Z,29.68
2023-06-17T04:43:51.590Z,29.69
2023-06-17T04:44:51.612Z,29.65
2023-06-17T04:45:51.596Z,29.70
2023-06-17T04:46:51.666Z,29.70
2023-06-17T04:47:51.651Z,29.68
2023-06-17T04:48:51.616Z,29.72
2023-06-17T04:49:51.606Z,29.73
2023-06-17T04:50:51.620Z,29.75
2023-06-17T04:51:51.625Z,29.79
2023-06-17T04:52:51.626Z,29.76
2023-06-17T04:53:51.642Z,29.75
2023-06-17T04:54:51.638Z,29.83
2023-06-17T04:55:51.644Z,29.76
2023-06-17T04:56:51.629Z,29.82
2023-06-17T04:57:51.647Z,29.85
2023-06-17T04:58:51.651Z,29.86
2023-06-17T04:59:51.645Z,29.82
2023-06-17T05:00:51.724Z,29.85
2023-06-17T05:01:51.637Z,29.82
2023-06-17T05:02:51.732Z,29.86
2023-06-17T05:03:51.705Z,29.87
2023-06-17T05:04:51.652Z,29.85
2023-06-17T05:05:51.653Z,29.85
2023-06-17T05:06:51.651Z,29.86
2023-06-17T05:07:51.669Z,29.92
2023-06-17T05:08:51.667Z,29.92
2023-06-17T05:09:51.681Z,29.90
2023-06-17T05:10:51.670Z,29.90
2023-06-17T05:11:51.676Z,29.91
2023-06-17T05:12:51.701Z,29.93
2023-06-17T05:13:51.688Z,29.90
2023-06-17T05:14:51.678Z,29.95
2023-06-17T05:15:51.702Z,29.90
2023-06-17T05:16:51.742Z,29.97
2023-06-17T05:17:51.762Z,29.97
2023-06-17T05:18:51.735Z,30.00
2023-06-17T05:19:51.745Z,30.04
2023-06-17T05:20:51.740Z,30.00
2023-06-17T05:21:51.765Z,30.03
2023-06-17T05:22:51.762Z,30.02
2023-06-17T05:23:51.809Z,30.07
2023-06-17T05:24:51.794Z,30.03
2023-06-17T05:25:51.832Z,30.04
2023-06-17T05:26:51.828Z,30.07
2023-06-17T05:27:51.856Z,30.06
2023-06-17T05:28:51.850Z,30.09
2023-06-17T05:29:51.864Z,30.04
2023-06-17T05:30:51.918Z,30.09
2023-06-17T05:31:51.877Z,30.07
2023-06-17T05:32:51.969Z,30.13
2023-06-17T05:33:51.908Z,30.10
2023-06-17T05:34:51.898Z,30.11
2023-06-17T05:35:51.914Z,30.10
2023-06-17T05:36:51.921Z,30.07
2023-06-17T05:37:51.944Z,30.13
2023-06-17T05:38:51.971Z,30.15
2023-06-17T05:39:51.973Z,30.24
2023-06-17T05:40:51.991Z,30.19
2023-06-17T05:41:52.010Z,30.21
2023-06-17T05:42:52.010Z,30.26
2023-06-17T05:43:52.042Z,30.24
2023-06-17T05:44:52.051Z,30.25
2023-06-17T05:45:52.069Z,30.29
2023-06-17T05:46:52.067Z,30.30
2023-06-17T05:47:52.099Z,30.31
2023-06-17T05:48:52.087Z,30.33
2023-06-17T05:49:52.093Z,30.34
2023-06-17T05:50:52.107Z,30.26
2023-06-17T05:51:52.130Z,30.31
2023-06-17T05:52:52.128Z,30.33
2023-06-17T05:53:52.164Z,30.39
2023-06-17T05:54:52.154Z,30.35
2023-06-17T05:55:52.181Z,30.36
2023-06-17T05:56:52.192Z,30.35
2023-06-17T05:57:52.203Z,30.37
2023-06-17T05:58:52.197Z,30.42
2023-06-17T05:59:52.219Z,30.39
2023-06-17T06:00:52.233Z,30.40
2023-06-17T06:01:52.329Z,30.46
2023-06-17T06:02:52.280Z,30.48
2023-06-17T06:03:52.314Z,30.45
2023-06-17T06:04:52.281Z,30.49
2023-06-17T06:05:52.301Z,30.50
2023-06-17T06:06:52.293Z,30.54
2023-06-17T06:07:52.317Z,30.58
2023-06-17T06:08:52.310Z,30.58
2023-06-17T06:09:52.348Z,30.67
2023-06-17T06:10:52.320Z,30.64
2023-06-17T06:11:52.338Z,30.60
2023-06-17T06:12:52.341Z,30.64
2023-06-17T06:13:52.348Z,30.63
2023-06-17T06:14:52.346Z,30.72
2023-06-17T06:15:52.410Z,30.68
2023-06-17T06:16:52.359Z,30.73
2023-06-17T06:17:52.374Z,30.75
2023-06-17T06:18:52.342Z,30.71
2023-06-17T06:19:52.436Z,30.73
2023-06-17T06:20:52.320Z,30.71
2023-06-17T06:21:52.325Z,30.75
2023-06-17T06:22:52.310Z,30.75
2023-06-17T06:23:52.341Z,30.78
2023-06-17T06:24:52.276Z,30.78
2023-06-17T06:25:52.249Z,30.81
2023-06-17T06:26:52.256Z,30.92
2023-06-17T06:27:52.222Z,30.85
2023-06-17T06:28:52.205Z,30.84
2023-06-17T06:29:52.189Z,30.85
2023-06-17T06:30:52.181Z,30.82
2023-06-17T06:31:52.173Z,30.80
2023-06-17T06:32:52.157Z,30.80
2023-06-17T06:33:52.129Z,30.79
2023-06-17T06:34:52.116Z,30.77
2023-06-17T06:35:52.098Z,30.76
2023-06-17T06:36:52.105Z,30.73
2023-06-17T06:37:52.067Z,30.74
2023-06-17T06:38:52.053Z,30.83
2023-06-17T06:39:52.032Z,30.78
2023-06-17T06:40:52.019Z,30.70
2023-06-17T06:41:52.001Z,30.71
2023-06-17T06:42:51.962Z,30.70
2023-06-17T06:43:51.960Z,30.67
2023-06-17T06:44:51.926Z,30.67
2023-06-17T06:45:51.961Z,30.62
2023-06-17T06:46:51.895Z,30.66
2023-06-17T06:47:51.973Z,30.66
2023-06-17T06:48:51.852Z,30.62
2023-06-17T06:49:51.822Z,30.56
2023-06-17T06:50:51.795Z,30.58
2023-06-17T06:51:51.789Z,30.51
2023-06-17T06:52:51.752Z,30.53
2023-06-17T06:53:51.752Z,30.51
2023-06-17T06:54:51.707Z,30.52
2023-06-17T06:55:51.704Z,30.54
2023-06-17T06:56:51.662Z,30.58
2023-06-17T06:57:51.681Z,30.50
2023-06-17T06:58:51.629Z,30.56
2023-06-17T06:59:52.644Z,30.53
2023-06-17T07:00:51.606Z,30.54
2023-06-17T07:01:51.547Z,30.51
2023-06-17T07:02:51.617Z,30.45
2023-06-17T07:03:51.505Z,30.41
2023-06-17T07:04:51.535Z,30.44
2023-06-17T07:05:51.479Z,30.40
2023-06-17T07:06:51.448Z,30.41
2023-06-17T07:07:51.438Z,30.37
2023-06-17T07:08:51.474Z,30.37
2023-06-17T07:09:51.521Z,30.40
2023-06-17T07:10:51.555Z,30.47
2023-06-17T07:11:51.602Z,30.42
2023-06-17T07:12:51.588Z,30.40
2023-06-17T07:13:51.633Z,30.48
2023-06-17T07:14:51.594Z,30.51
2023-06-17T07:15:51.571Z,30.40
2023-06-17T07:16:51.628Z,30.45
2023-06-17T07:17:51.700Z,30.52
2023-06-17T07:18:51.629Z,30.45
2023-06-17T07:19:51.645Z,30.34
2023-06-17T07:20:51.654Z,30.32
2023-06-17T07:21:51.714Z,30.35
2023-06-17T07:22:51.722Z,30.37
2023-06-17T07:23:51.755Z,30.30
2023-06-17T07:24:51.777Z,30.28
2023-06-17T07:25:53.022Z,30.27
2023-06-17T07:26:51.775Z,30.25
2023-06-17T07:27:51.754Z,30.15
2023-06-17T07:28:51.749Z,30.16
2023-06-17T07:29:51.728Z,30.13
2023-06-17T07:30:51.737Z,30.09
2023-06-17T07:31:51.679Z,30.09
2023-06-17T07:32:51.694Z,30.07
2023-06-17T07:33:57.865Z,30.02
2023-06-17T07:34:51.639Z,30.02
2023-06-17T07:35:51.630Z,30.03
2023-06-17T07:36:51.586Z,30.02
2023-06-17T07:37:51.578Z,30.06
2023-06-17T07:38:51.549Z,30.05
2023-06-17T07:39:51.545Z,30.07
2023-06-17T07:40:51.526Z,30.03
2023-06-17T07:41:51.494Z,30.05
2023-06-17T07:42:51.471Z,30.02
2023-06-17T07:43:51.520Z,30.07
2023-06-17T07:44:51.557Z,30.07
2023-06-17T07:45:51.619Z,29.99
2023-06-17T07:46:51.692Z,29.95
2023-06-17T07:47:51.698Z,29.93
2023-06-17T07:48:51.698Z,30.02
2023-06-17T07:49:51.742Z,30.00
2023-06-17T07:50:51.741Z,30.00
2023-06-17T07:51:51.769Z,30.04
2023-06-17T07:52:51.788Z,29.99
2023-06-17T07:53:51.809Z,29.90
2023-06-17T07:54:51.824Z,29.83
2023-06-17T07:55:51.845Z,29.80
2023-06-17T07:56:51.868Z,29.83
2023-06-17T07:57:51.893Z,29.80
2023-06-17T07:58:51.919Z,29.69
2023-06-17T07:59:51.951Z,29.63
2023-06-17T08:00:51.990Z,29.53
2023-06-17T08:01:52.074Z,29.44
2023-06-17T08:02:52.090Z,29.34
2023-06-17T08:03:52.116Z,29.30
2023-06-17T08:04:52.041Z,29.20
2023-06-17T08:05:52.083Z,29.17
2023-06-17T08:06:52.086Z,29.17
2023-06-17T08:07:52.206Z,29.15
2023-06-17T08:08:52.124Z,29.00
2023-06-17T08:09:52.135Z,28.99
2023-06-17T08:10:52.164Z,28.94
2023-06-17T08:11:52.185Z,28.89
2023-06-17T08:12:52.200Z,28.83
2023-06-17T08:13:52.214Z,28.72
2023-06-17T08:14:52.204Z,28.64
2023-06-17T08:15:52.234Z,28.60
2023-06-17T08:16:52.293Z,28.51
2023-06-17T08:17:52.258Z,28.36
2023-06-17T08:18:52.213Z,28.37
2023-06-17T08:19:52.223Z,28.18
2023-06-17T08:20:52.168Z,28.10
2023-06-17T08:21:52.131Z,28.05
2023-06-17T08:22:52.105Z,28.01
2023-06-17T08:23:52.156Z,28.07
2023-06-17T08:24:52.062Z,27.91
2023-06-17T08:25:52.049Z,27.72
2023-06-17T08:26:52.011Z,27.60
2023-06-17T08:27:52.148Z,27.50
2023-06-17T08:28:51.970Z,27.39
2023-06-17T08:29:51.949Z,27.70
2023-06-17T08:30:51.915Z,27.32
2023-06-17T08:31:51.927Z,27.17
2023-06-17T08:32:51.883Z,27.55
2023-06-17T08:33:51.846Z,27.39
2023-06-17T08:34:51.817Z,26.99
2023-06-17T08:35:51.795Z,27.22
2023-06-17T08:36:51.803Z,26.99
2023-06-17T08:37:51.793Z,26.96
2023-06-17T08:38:51.821Z,27.06
2023-06-17T08:39:51.799Z,27.80
2023-06-17T08:40:51.804Z,26.77
2023-06-17T08:41:51.816Z,26.66
2023-06-17T08:42:51.790Z,27.08
2023-06-17T08:43:51.814Z,26.82
2023-06-17T08:44:51.840Z,26.67
2023-06-17T08:45:51.883Z,27.22
2023-06-17T08:46:51.831Z,26.86
2023-06-17T08:47:51.882Z,27.18
2023-06-17T08:48:51.819Z,27.01
2023-06-17T08:49:51.826Z,26.92
2023-06-17T08:50:51.830Z,26.43
2023-06-17T08:51:51.837Z,26.39
2023-06-17T08:52:53.716Z,26.49
2023-06-17T08:53:51.819Z,26.69
2023-06-17T08:54:51.779Z,26.62
2023-06-17T08:55:51.774Z,26.63
2023-06-17T08:56:51.747Z,26.72
2023-06-17T08:57:51.720Z,26.77
2023-06-17T08:58:51.720Z,26.80
2023-06-17T08:59:51.687Z,26.83
2023-06-17T09:00:51.720Z,26.92
2023-06-17T09:01:51.625Z,26.88
2023-06-17T09:02:51.603Z,26.91
2023-06-17T09:03:51.574Z,26.94
2023-06-17T09:04:51.577Z,27.03
2023-06-17T09:05:51.517Z,27.01
2023-06-17T09:06:51.481Z,27.04
2023-06-17T09:07:51.460Z,27.03
2023-06-17T09:08:51.444Z,27.06
2023-06-17T09:09:51.395Z,27.11
2023-06-17T09:10:51.357Z,27.10
2023-06-17T09:11:52.665Z,27.11
2023-06-17T09:12:51.297Z,27.08
2023-06-17T09:13:51.346Z,27.13
2023-06-17T09:14:51.244Z,27.17
2023-06-17T09:15:51.217Z,27.19
2023-06-17T09:16:51.215Z,27.16
2023-06-17T09:17:51.202Z,27.17
2023-06-17T09:18:51.137Z,27.22
2023-06-17T09:19:51.091Z,27.24
2023-06-17T09:20:51.052Z,27.21
2023-06-17T09:21:51.019Z,27.22
2023-06-17T09:22:51.029Z,27.27
2023-06-17T09:23:51.066Z,27.23
2023-06-17T09:24:51.053Z,27.27
2023-06-17T09:25:51.062Z,27.24
2023-06-17T09:26:51.109Z,27.31
2023-06-17T09:28:08.325Z,27.33
2023-06-17T09:28:52.068Z,27.31
2023-06-17T09:29:51.021Z,27.32
2023-06-17T09:30:51.006Z,27.37
2023-06-17T09:31:50.964Z,27.34
2023-06-17T09:32:51.082Z,27.34
2023-06-17T09:33:50.892Z,27.37
2023-06-17T09:34:50.856Z,27.34
2023-06-17T09:35:50.800Z,27.36
2023-06-17T09:36:50.774Z,27.37
2023-06-17T09:38:02.463Z,27.42
2023-06-17T09:38:51.721Z,27.43
2023-06-17T09:39:50.689Z,27.36
2023-06-17T09:40:50.677Z,27.39
2023-06-17T09:41:50.624Z,27.43
2023-06-17T09:42:50.610Z,27.45
2023-06-17T09:43:50.568Z,27.46
2023-06-17T09:44:50.547Z,27.44
2023-06-17T09:45:50.498Z,27.47
2023-06-17T09:46:50.458Z,27.44
2023-06-17T09:47:50.472Z,27.49
2023-06-17T09:48:50.382Z,27.55
2023-06-17T09:49:50.329Z,27.54
2023-06-17T09:50:50.295Z,27.49
2023-06-17T09:51:50.277Z,27.53
2023-06-17T09:52:50.241Z,27.53
2023-06-17T09:53:50.216Z,27.56
2023-06-17T09:54:50.173Z,27.51
2023-06-17T09:55:50.144Z,27.49
2023-06-17T09:56:50.109Z,27.53
2023-06-17T09:57:50.083Z,27.54
2023-06-17T09:58:50.058Z,27.59
2023-06-17T09:59:50.023Z,27.56
2023-06-17T10:00:49.984Z,27.64
2023-06-17T10:01:49.951Z,27.62
2023-06-17T10:02:50.025Z,27.54
2023-06-17T10:03:49.996Z,27.66
2023-06-17T10:04:49.847Z,27.65
2023-06-17T10:05:49.809Z,27.69
2023-06-17T10:06:49.770Z,27.71
2023-06-17T10:07:49.730Z,27.69
2023-06-17T10:08:49.705Z,27.65
2023-06-17T10:09:49.711Z,27.66
2023-06-17T10:10:49.685Z,27.68
2023-06-17T10:11:49.688Z,27.68
2023-06-17T10:12:49.634Z,27.68
2023-06-17T10:13:49.605Z,27.65
2023-06-17T10:14:49.578Z,27.67
2023-06-17T10:15:49.619Z,27.66
2023-06-17T10:16:49.592Z,27.67
2023-06-17T10:17:49.695Z,27.76
2023-06-17T10:18:49.557Z,27.68
2023-06-17T10:19:49.509Z,27.72
2023-06-17T10:20:49.490Z,27.72
2023-06-17T10:21:49.430Z,27.69
2023-06-17T10:22:49.401Z,27.72
2023-06-17T10:23:49.405Z,27.74
2023-06-17T10:24:49.352Z,27.78
2023-06-17T10:25:49.275Z,27.78
2023-06-17T10:26:51.129Z,27.82
2023-06-17T10:27:49.214Z,27.78
2023-06-17T10:28:49.193Z,27.78
2023-06-17T10:29:49.143Z,27.78
2023-06-17T10:30:49.119Z,27.80
2023-06-17T10:31:49.108Z,27.80
2023-06-17T10:32:50.981Z,27.77
2023-06-17T10:33:49.034Z,27.82
2023-06-17T10:34:48.968Z,27.79
2023-06-17T10:35:48.928Z,27.83
2023-06-17T10:36:48.915Z,27.80
2023-06-17T10:37:48.865Z,27.80
2023-06-17T10:38:50.525Z,27.83
2023-06-17T10:39:48.796Z,27.87
2023-06-17T10:40:48.811Z,27.93
2023-06-17T10:41:48.725Z,27.87
2023-06-17T10:42:48.708Z,27.93
2023-06-17T10:43:48.663Z,27.89
2023-06-17T10:44:50.141Z,27.89
2023-06-17T10:45:48.645Z,27.85
2023-06-17T10:46:48.539Z,27.89
2023-06-17T10:47:48.544Z,27.89
2023-06-17T10:48:48.529Z,27.88
2023-06-17T10:49:48.539Z,27.88
2023-06-17T10:50:50.965Z,27.82
2023-06-17T10:52:48.453Z,27.84
2023-06-17T10:53:48.428Z,27.91
2023-06-17T10:54:48.373Z,27.90
2023-06-17T10:55:48.334Z,27.94
2023-06-17T10:56:48.299Z,27.97
2023-06-17T10:57:48.254Z,27.98
2023-06-17T10:58:48.213Z,28.04
2023-06-17T10:59:48.171Z,28.05
2023-06-17T11:00:48.127Z,28.02
2023-06-17T11:01:49.582Z,28.06
2023-06-17T11:02:48.112Z,28.13
2023-06-17T11:03:48.012Z,28.12
2023-06-17T11:04:47.961Z,28.15
2023-06-17T11:05:47.922Z,28.20
2023-06-17T11:06:47.900Z,28.20
2023-06-17T11:07:47.858Z,28.19
2023-06-17T11:08:47.801Z,28.14
2023-06-17T11:09:47.837Z,28.15
2023-06-17T11:10:47.796Z,28.17
2023-06-17T11:11:47.652Z,28.15
2023-06-17T11:12:48.922Z,28.13
2023-06-17T11:13:47.568Z,28.14
2023-06-17T11:14:47.525Z,28.18
2023-06-17T11:15:47.477Z,28.17
2023-06-17T11:16:47.511Z,28.13
2023-06-17T11:17:47.424Z,28.14
2023-06-17T11:18:49.392Z,28.10
2023-06-17T11:19:47.311Z,28.16
2023-06-17T11:20:47.265Z,28.09
2023-06-17T11:21:47.234Z,28.05
2023-06-17T11:22:47.185Z,28.09
2023-06-17T11:23:47.142Z,28.08
2023-06-17T11:24:47.098Z,28.09
2023-06-17T11:25:47.057Z,28.08
2023-06-17T11:26:47.022Z,28.08
2023-06-17T11:27:46.976Z,28.05
2023-06-17T11:28:46.933Z,28.06
2023-06-17T11:29:46.880Z,28.03
2023-06-17T11:30:46.862Z,28.02
2023-06-17T11:31:46.821Z,28.06
2023-06-17T11:32:46.801Z,28.09
2023-06-17T11:33:46.739Z,28.07
2023-06-17T11:34:46.692Z,28.13
2023-06-17T11:35:46.621Z,28.14
2023-06-17T11:36:46.581Z,28.15
2023-06-17T11:37:46.537Z,28.16
2023-06-17T11:38:46.521Z,28.15
2023-06-17T11:39:46.460Z,28.18
2023-06-17T11:40:46.407Z,28.24
2023-06-17T11:41:46.366Z,28.21
2023-06-17T11:42:46.318Z,28.20
2023-06-17T11:43:46.285Z,28.23
2023-06-17T11:44:46.232Z,28.25
2023-06-17T11:45:46.198Z,28.33
2023-06-17T11:46:46.224Z,28.27
2023-06-17T11:47:46.169Z,28.38
2023-06-17T11:48:46.176Z,28.34
2023-06-17T11:49:46.177Z,28.39
2023-06-17T11:50:46.193Z,28.47
2023-06-17T11:51:46.204Z,28.49
2023-06-17T11:52:46.248Z,28.43
2023-06-17T11:53:46.265Z,28.52
2023-06-17T11:54:46.257Z,28.50
2023-06-17T11:55:46.288Z,28.52
2023-06-17T11:56:46.301Z,28.51
2023-06-17T11:57:46.330Z,28.53
2023-06-17T11:58:46.363Z,28.58
2023-06-17T11:59:46.352Z,28.57
2023-06-17T12:00:46.376Z,28.57
2023-06-17T12:01:46.420Z,28.55
2023-06-17T12:02:46.538Z,28.53
2023-06-17T12:03:46.448Z,28.57
2023-06-17T12:04:46.471Z,28.58
2023-06-17T12:05:46.483Z,28.62
2023-06-17T12:06:46.468Z,28.59
2023-06-17T12:07:46.500Z,28.59
2023-06-17T12:08:46.521Z,28.59
2023-06-17T12:09:46.528Z,28.58
2023-06-17T12:10:46.569Z,28.57
2023-06-17T12:11:46.568Z,28.60
2023-06-17T12:12:46.604Z,28.61
2023-06-17T12:13:46.616Z,28.56
2023-06-17T12:14:46.620Z,28.50
2023-06-17T12:15:46.647Z,28.55
2023-06-17T12:16:46.668Z,28.52
2023-06-17T12:17:46.833Z,28.46
2023-06-17T12:18:46.678Z,28.46
2023-06-17T12:19:46.689Z,28.46
2023-06-17T12:20:46.695Z,28.50
2023-06-17T12:21:46.696Z,28.49
2023-06-17T12:22:46.730Z,28.47
2023-06-17T12:23:46.900Z,28.42
2023-06-17T12:24:46.716Z,28.46
2023-06-17T12:25:46.717Z,28.47
2023-06-17T12:26:46.730Z,28.42
2023-06-17T12:27:46.740Z,28.45
2023-06-17T12:28:46.754Z,28.44
2023-06-17T12:29:47.024Z,28.47
2023-06-17T12:30:46.705Z,28.42
2023-06-17T12:31:46.654Z,28.45
2023-06-17T12:32:46.681Z,28.50
2023-06-17T12:33:46.567Z,28.47
2023-06-17T12:34:46.513Z,28.40
2023-06-17T12:35:46.461Z,28.41
2023-06-17T12:36:46.426Z,28.49
2023-06-17T12:37:46.373Z,28.44
2023-06-17T12:38:46.352Z,28.48
2023-06-17T12:39:46.294Z,28.51
2023-06-17T12:40:46.252Z,28.52
2023-06-17T12:41:46.253Z,28.56
2023-06-17T12:42:46.261Z,28.59
2023-06-17T12:44:46.261Z,28.67
2023-06-17T12:45:46.288Z,28.68
2023-06-17T12:46:46.261Z,28.69
2023-06-17T12:47:46.318Z,28.73
2023-06-17T12:48:46.301Z,28.71
2023-06-17T12:49:46.285Z,28.75
2023-06-17T12:50:46.287Z,28.79
2023-06-17T12:51:46.306Z,28.78
2023-06-17T12:52:46.308Z,28.78
2023-06-17T12:53:46.306Z,28.83
2023-06-17T12:54:46.333Z,28.75